createdAt,value
2023-03-28T00:00:46.078Z,96.80
2023-03-28T00:01:46.099Z,97.11
2023-03-28T00:02:46.644Z,97.06
2023-03-28T00:03:46.114Z,97.11
2023-03-28T00:04:46.041Z,96.27
2023-03-28T00:05:46.042Z,96.48
2023-03-28T00:06:46.040Z,96.48
2023-03-28T00:07:46.038Z,96.37
2023-03-28T00:08:46.637Z,96.69
2023-03-28T00:09:46.008Z,97.00
2023-03-28T00:10:46.007Z,96.84
2023-03-28T00:11:46.016Z,96.27
2023-03-28T00:12:45.978Z,96.69
2023-03-28T00:13:45.979Z,96.27
2023-03-28T00:14:45.994Z,96.27
2023-03-28T00:15:45.985Z,96.73
2023-03-28T00:16:45.950Z,97.00
2023-03-28T00:17:45.990Z,96.53
2023-03-28T00:18:45.933Z,96.42
2023-03-28T00:19:45.993Z,96.94
2023-03-28T00:20:45.925Z,97.00
2023-03-28T00:21:45.915Z,97.11
2023-03-28T00:23:45.766Z,97.11
2023-03-28T00:24:45.739Z,97.11
2023-03-28T00:25:45.741Z,97.32
2023-03-28T00:26:46.826Z,96.90
2023-03-28T00:27:46.835Z,97.11
2023-03-28T00:28:46.795Z,97.00
2023-03-28T00:29:46.802Z,96.27
2023-03-28T00:30:46.798Z,96.37
2023-03-28T00:31:46.841Z,97.00
2023-03-28T00:32:46.798Z,96.80
2023-03-28T00:33:46.768Z,96.59
2023-03-28T00:34:46.755Z,96.90
2023-03-28T00:35:46.798Z,96.90
2023-03-28T00:36:46.779Z,96.33
2023-03-28T00:37:46.750Z,96.27
2023-03-28T00:38:46.722Z,96.86
2023-03-28T00:39:46.717Z,95.81
2023-03-28T00:40:46.711Z,96.02
2023-03-28T00:41:46.713Z,96.33
2023-03-28T00:42:46.699Z,96.59
2023-03-28T00:43:46.694Z,96.75
2023-03-28T00:44:46.690Z,96.27
2023-03-28T00:45:56.121Z,96.33
2023-03-28T00:46:48.686Z,96.90
2023-03-28T00:47:46.771Z,96.80
2023-03-28T00:48:46.717Z,96.86
2023-03-28T00:49:46.645Z,96.65
2023-03-28T00:50:47.094Z,96.23
2023-03-28T00:51:46.863Z,96.23
2023-03-28T00:52:46.897Z,96.33
2023-03-28T00:53:46.904Z,96.55
2023-03-28T00:54:46.871Z,96.65
2023-03-28T00:55:46.591Z,96.55
2023-03-28T00:56:46.619Z,96.44
2023-03-28T00:57:46.601Z,97.06
2023-03-28T00:58:46.576Z,96.86
2023-03-28T00:59:46.569Z,96.71
2023-03-28T01:00:46.543Z,96.33
2023-03-28T01:01:46.591Z,96.23
2023-03-28T01:02:46.567Z,95.76
2023-03-28T01:03:46.767Z,95.66
2023-03-28T01:04:46.511Z,95.03
2023-03-28T01:05:46.513Z,96.50
2023-03-28T01:06:46.521Z,95.87
2023-03-28T01:07:46.510Z,95.25
2023-03-28T01:08:46.471Z,95.29
2023-03-28T01:09:46.481Z,95.50
2023-03-28T01:10:46.468Z,94.66
2023-03-28T01:11:46.477Z,94.82
2023-03-28T01:12:46.457Z,95.07
2023-03-28T01:13:46.462Z,95.07
2023-03-28T01:14:46.439Z,94.97
2023-03-28T01:15:46.450Z,95.18
2023-03-28T01:16:47.103Z,95.39
2023-03-28T01:17:46.594Z,95.07
2023-03-28T01:18:46.407Z,95.86
2023-03-28T01:19:46.399Z,95.75
2023-03-28T01:20:46.391Z,95.75
2023-03-28T01:21:46.378Z,95.39
2023-03-28T01:22:57.167Z,95.70
2023-03-28T01:23:47.376Z,95.33
2023-03-28T01:24:46.353Z,95.29
2023-03-28T01:25:46.337Z,95.75
2023-03-28T01:26:46.351Z,96.86
2023-03-28T01:27:46.342Z,96.55
2023-03-28T01:28:46.330Z,96.44
2023-03-28T01:29:46.315Z,96.96
2023-03-28T01:30:46.307Z,96.65
2023-03-28T01:31:46.428Z,96.55
2023-03-28T01:32:47.122Z,96.55
2023-03-28T01:33:46.279Z,95.81
2023-03-28T01:34:46.308Z,95.70
2023-03-28T01:35:46.302Z,95.70
2023-03-28T01:36:46.253Z,95.43
2023-03-28T01:37:46.245Z,95.23
2023-03-28T01:38:46.248Z,95.12
2023-03-28T01:39:46.265Z,95.29
2023-03-28T01:40:46.277Z,96.06
2023-03-28T01:41:46.243Z,95.64
2023-03-28T01:42:46.223Z,96.17
2023-03-28T01:43:46.234Z,95.54
2023-03-28T01:44:46.218Z,94.91
2023-03-28T01:45:46.215Z,94.81
2023-03-28T01:46:46.209Z,95.33
2023-03-28T01:47:46.236Z,95.27
2023-03-28T01:48:46.166Z,94.70
2023-03-28T01:49:47.171Z,95.37
2023-03-28T01:50:46.157Z,95.90
2023-03-28T01:51:46.187Z,97.00
2023-03-28T01:52:46.140Z,96.59
2023-03-28T01:53:46.144Z,96.59
2023-03-28T01:54:46.128Z,96.44
2023-03-28T01:55:46.127Z,97.00
2023-03-28T01:56:46.166Z,96.27
2023-03-28T01:57:46.331Z,96.55
2023-03-28T01:58:46.099Z,96.17
2023-03-28T01:59:46.112Z,96.48
2023-03-28T02:00:46.150Z,96.59
2023-03-28T02:01:46.096Z,96.27
2023-03-28T02:02:46.144Z,95.64
2023-03-28T02:03:46.059Z,95.96
2023-03-28T02:04:46.063Z,95.60
2023-03-28T02:05:46.048Z,95.29
2023-03-28T02:06:46.047Z,95.07
2023-03-28T02:07:46.028Z,94.87
2023-03-28T02:08:46.026Z,95.18
2023-03-28T02:09:46.018Z,94.76
2023-03-28T02:10:46.022Z,94.30
2023-03-28T02:11:46.004Z,94.62
2023-03-28T02:12:45.998Z,94.62
2023-03-28T02:13:45.992Z,94.30
2023-03-28T02:14:45.998Z,94.51
2023-03-28T02:15:45.977Z,95.03
2023-03-28T02:16:46.020Z,94.93
2023-03-28T02:17:45.986Z,94.51
2023-03-28T02:18:45.949Z,94.46
2023-03-28T02:19:45.958Z,93.74
2023-03-28T02:20:45.940Z,93.63
2023-03-28T02:21:45.925Z,93.99
2023-03-28T02:22:45.935Z,93.21
2023-03-28T02:23:45.912Z,93.32
2023-03-28T02:24:45.903Z,92.83
2023-03-28T02:25:45.892Z,92.73
2023-03-28T02:26:47.781Z,92.52
2023-03-28T02:27:45.887Z,92.21
2023-03-28T02:28:45.862Z,92.00
2023-03-28T02:29:45.866Z,91.85
2023-03-28T02:30:45.865Z,92.48
2023-03-28T02:31:45.852Z,92.38
2023-03-28T02:32:45.862Z,92.27
2023-03-28T02:33:45.838Z,92.48
2023-03-28T02:34:45.824Z,92.48
2023-03-28T02:35:45.831Z,92.06
2023-03-28T02:36:45.812Z,91.22
2023-03-28T02:37:45.810Z,91.60
2023-03-28T02:38:45.795Z,91.08
2023-03-28T02:39:45.783Z,92.13
2023-03-28T02:40:45.817Z,91.91
2023-03-28T02:41:45.779Z,92.23
2023-03-28T02:42:45.776Z,92.44
2023-03-28T02:43:45.753Z,92.02
2023-03-28T02:44:45.780Z,92.06
2023-03-28T02:45:45.779Z,92.16
2023-03-28T02:46:45.760Z,92.33
2023-03-28T02:47:45.751Z,92.44
2023-03-28T02:48:45.710Z,91.91
2023-03-28T02:49:50.565Z,91.91
2023-03-28T02:50:47.705Z,91.39
2023-03-28T02:51:45.704Z,91.35
2023-03-28T02:52:45.685Z,91.03
2023-03-28T02:53:45.673Z,90.62
2023-03-28T02:54:45.675Z,90.31
2023-03-28T02:55:45.657Z,90.72
2023-03-28T02:56:45.686Z,90.26
2023-03-28T02:57:45.640Z,90.06
2023-03-28T02:58:45.648Z,90.09
2023-03-28T02:59:45.620Z,90.47
2023-03-28T03:00:45.628Z,89.91
2023-03-28T03:01:45.681Z,89.64
2023-03-28T03:02:45.630Z,89.84
2023-03-28T03:03:45.645Z,89.84
2023-03-28T03:04:45.609Z,89.43
2023-03-28T03:05:45.585Z,88.80
2023-03-28T03:06:45.578Z,88.74
2023-03-28T03:07:45.553Z,88.80
2023-03-28T03:08:45.570Z,88.64
2023-03-28T03:09:45.961Z,89.36
2023-03-28T03:10:46.549Z,89.58
2023-03-28T03:11:45.521Z,89.89
2023-03-28T03:12:45.532Z,89.68
2023-03-28T03:13:45.529Z,89.89
2023-03-28T03:14:45.505Z,89.78
2023-03-28T03:15:45.534Z,88.95
2023-03-28T03:16:45.483Z,88.95
2023-03-28T03:17:45.540Z,88.95
2023-03-28T03:18:45.494Z,89.05
2023-03-28T03:19:45.479Z,89.26
2023-03-28T03:20:45.480Z,89.58
2023-03-28T03:21:45.456Z,89.78
2023-03-28T03:22:45.436Z,89.78
2023-03-28T03:23:45.443Z,89.89
2023-03-28T03:24:45.433Z,90.09
2023-03-28T03:25:45.450Z,90.09
2023-03-28T03:26:45.416Z,89.78
2023-03-28T03:27:45.416Z,89.99
2023-03-28T03:28:45.391Z,90.31
2023-03-28T03:29:45.407Z,89.89
2023-03-28T03:30:45.381Z,89.58
2023-03-28T03:31:45.441Z,89.68
2023-03-28T03:32:45.437Z,89.78
2023-03-28T03:33:45.359Z,89.78
2023-03-28T03:34:45.357Z,89.78
2023-03-28T03:35:45.373Z,89.68
2023-03-28T03:36:45.320Z,89.58
2023-03-28T03:37:45.330Z,89.74
2023-03-28T03:38:45.314Z,89.53
2023-03-28T03:39:46.312Z,89.68
2023-03-28T03:40:45.299Z,89.95
2023-03-28T03:41:45.297Z,89.78
2023-03-28T03:42:45.285Z,89.74
2023-03-28T03:43:47.145Z,89.78
2023-03-28T03:44:47.124Z,89.95
2023-03-28T03:45:45.290Z,90.06
2023-03-28T03:46:45.294Z,89.58
2023-03-28T03:47:45.298Z,90.06
2023-03-28T03:48:49.508Z,89.74
2023-03-28T03:49:46.236Z,89.89
2023-03-28T03:50:45.219Z,90.06
2023-03-28T03:51:45.210Z,90.37
2023-03-28T03:52:45.194Z,90.26
2023-03-28T03:53:46.197Z,90.37
2023-03-28T03:54:45.206Z,90.26
2023-03-28T03:55:45.178Z,90.06
2023-03-28T03:56:45.236Z,90.06
2023-03-28T03:57:45.167Z,90.31
2023-03-28T03:58:45.163Z,90.06
2023-03-28T03:59:45.158Z,90.16
2023-03-28T04:00:45.143Z,90.26
2023-03-28T04:01:45.233Z,90.06
2023-03-28T04:02:45.183Z,90.06
2023-03-28T04:03:45.120Z,90.16
2023-03-28T04:04:45.110Z,89.84
2023-03-28T04:05:45.134Z,89.95
2023-03-28T04:06:45.095Z,90.06
2023-03-28T04:07:45.081Z,89.53
2023-03-28T04:08:45.085Z,89.64
2023-03-28T04:09:45.115Z,89.84
2023-03-28T04:10:46.849Z,89.95
2023-03-28T04:11:46.047Z,89.53
2023-03-28T04:12:45.624Z,89.74
2023-03-28T04:13:45.044Z,89.53
2023-03-28T04:14:45.031Z,89.22
2023-03-28T04:15:45.061Z,89.26
2023-03-28T04:16:45.190Z,89.05
2023-03-28T04:17:45.019Z,88.70
2023-03-28T04:18:44.997Z,88.64
2023-03-28T04:19:44.984Z,89.05
2023-03-28T04:20:44.992Z,89.01
2023-03-28T04:21:44.973Z,89.15
2023-03-28T04:22:45.133Z,89.15
2023-03-28T04:23:44.943Z,89.26
2023-03-28T04:24:44.944Z,89.78
2023-03-28T04:25:44.935Z,89.26
2023-03-28T04:26:44.932Z,89.89
2023-03-28T04:27:45.920Z,89.78
2023-03-28T04:28:44.902Z,89.58
2023-03-28T04:29:44.910Z,89.89
2023-03-28T04:30:44.888Z,89.68
2023-03-28T04:31:44.963Z,89.78
2023-03-28T04:32:44.962Z,89.78
2023-03-28T04:33:44.873Z,89.68
2023-03-28T04:34:44.868Z,89.78
2023-03-28T04:35:44.879Z,89.68
2023-03-28T04:36:44.932Z,89.68
2023-03-28T04:37:44.865Z,89.89
2023-03-28T04:38:44.843Z,89.36
2023-03-28T04:39:44.839Z,88.64
2023-03-28T04:40:44.821Z,88.11
2023-03-28T04:41:44.830Z,87.76
2023-03-28T04:42:44.808Z,88.17
2023-03-28T04:43:44.801Z,87.65
2023-03-28T04:44:44.800Z,88.07
2023-03-28T04:45:44.830Z,87.76
2023-03-28T04:46:44.811Z,87.82
2023-03-28T04:47:44.855Z,88.07
2023-03-28T04:48:44.751Z,88.13
2023-03-28T04:49:44.842Z,87.40
2023-03-28T04:50:45.763Z,88.24
2023-03-28T04:51:44.768Z,88.13
2023-03-28T04:52:44.757Z,88.13
2023-03-28T04:53:44.733Z,86.99
2023-03-28T04:54:44.715Z,87.40
2023-03-28T04:55:44.708Z,86.88
2023-03-28T04:56:44.710Z,86.77
2023-03-28T04:57:44.721Z,87.09
2023-03-28T04:58:44.705Z,86.32
2023-03-28T04:59:44.703Z,86.53
2023-03-28T05:00:44.673Z,86.32
2023-03-28T05:01:44.714Z,86.11
2023-03-28T05:02:44.800Z,86.15
2023-03-28T05:03:44.703Z,86.21
2023-03-28T05:04:44.663Z,86.43
2023-03-28T05:05:44.630Z,86.53
2023-03-28T05:06:44.649Z,86.63
2023-03-28T05:07:44.630Z,86.21
2023-03-28T05:08:44.605Z,85.59
2023-03-28T05:09:44.604Z,86.32
2023-03-28T05:10:44.578Z,86.21
2023-03-28T05:11:44.586Z,86.21
2023-03-28T05:12:44.575Z,85.80
2023-03-28T05:13:44.597Z,86.11
2023-03-28T05:14:44.580Z,85.59
2023-03-28T05:15:44.559Z,85.59
2023-03-28T05:16:44.588Z,85.90
2023-03-28T05:17:44.558Z,85.03
2023-03-28T05:18:44.526Z,85.44
2023-03-28T05:19:44.515Z,84.50
2023-03-28T05:20:44.521Z,84.82
2023-03-28T05:21:44.519Z,85.55
2023-03-28T05:22:44.487Z,85.13
2023-03-28T05:23:51.520Z,84.78
2023-03-28T05:24:45.479Z,84.50
2023-03-28T05:25:44.468Z,84.36
2023-03-28T05:26:44.451Z,83.91
2023-03-28T05:27:44.456Z,82.93
2023-03-28T05:28:45.218Z,82.97
2023-03-28T05:29:44.445Z,81.99
2023-03-28T05:30:44.498Z,81.79
2023-03-28T05:31:44.435Z,80.50
2023-03-28T05:32:44.447Z,80.71
2023-03-28T05:33:44.421Z,81.12
2023-03-28T05:34:44.399Z,81.12
2023-03-28T05:35:44.775Z,81.23
2023-03-28T05:36:44.385Z,81.33
2023-03-28T05:37:46.778Z,81.75
2023-03-28T05:38:44.448Z,81.54
2023-03-28T05:39:44.370Z,80.54
2023-03-28T05:40:44.416Z,80.50
2023-03-28T05:41:44.340Z,80.81
2023-03-28T05:42:44.377Z,80.71
2023-03-28T05:43:44.328Z,81.43
2023-03-28T05:44:44.331Z,81.75
2023-03-28T05:45:44.334Z,81.85
2023-03-28T05:46:44.296Z,81.19
2023-03-28T05:47:44.351Z,80.67
2023-03-28T05:48:44.290Z,80.01
2023-03-28T05:49:45.327Z,79.45
2023-03-28T05:50:44.275Z,78.83
2023-03-28T05:51:44.310Z,78.20
2023-03-28T05:52:44.284Z,77.86
2023-03-28T05:53:44.257Z,76.57
2023-03-28T05:54:50.334Z,76.68
2023-03-28T05:55:45.222Z,76.43
2023-03-28T05:56:44.292Z,75.57
2023-03-28T05:57:44.249Z,75.67
2023-03-28T05:58:44.247Z,74.43
2023-03-28T05:59:44.205Z,74.50
2023-03-28T06:00:44.211Z,75.02
2023-03-28T06:01:44.194Z,74.29
2023-03-28T06:02:44.227Z,74.46
2023-03-28T06:03:44.222Z,73.28
2023-03-28T06:04:44.230Z,72.80
2023-03-28T06:05:44.736Z,72.88
2023-03-28T06:06:44.147Z,72.36
2023-03-28T06:07:44.147Z,71.18
2023-03-28T06:08:44.173Z,70.63
2023-03-28T06:09:44.144Z,70.15
2023-03-28T06:10:44.142Z,69.19
2023-03-28T06:11:44.747Z,68.57
2023-03-28T06:12:44.103Z,68.43
2023-03-28T06:13:44.104Z,67.91
2023-03-28T06:14:44.075Z,66.88
2023-03-28T06:15:44.070Z,66.88
2023-03-28T06:16:44.088Z,67.12
2023-03-28T06:17:44.087Z,68.15
2023-03-28T06:18:44.116Z,68.49
2023-03-28T06:19:44.085Z,69.01
2023-03-28T06:20:44.049Z,68.63
2023-03-28T06:21:44.018Z,68.91
2023-03-28T06:22:44.011Z,68.94
2023-03-28T06:23:44.019Z,69.04
2023-03-28T06:24:44.005Z,69.35
2023-03-28T06:25:44.009Z,70.01
2023-03-28T06:26:45.006Z,70.73
2023-03-28T06:27:44.755Z,70.97
2023-03-28T06:28:43.976Z,71.28
2023-03-28T06:29:43.952Z,71.84
2023-03-28T06:30:43.957Z,71.97
2023-03-28T06:31:44.036Z,71.73
2023-03-28T06:32:44.000Z,71.94
2023-03-28T06:33:43.927Z,71.77
2023-03-28T06:34:43.931Z,71.87
2023-03-28T06:35:44.023Z,72.32
2023-03-28T06:36:43.909Z,72.94
2023-03-28T06:37:43.931Z,72.94
2023-03-28T06:38:43.966Z,73.15
2023-03-28T06:39:44.244Z,73.15
2023-03-28T06:40:43.910Z,73.15
2023-03-28T06:41:43.901Z,72.94
2023-03-28T06:42:43.942Z,73.15
2023-03-28T06:43:43.859Z,72.70
2023-03-28T06:44:43.858Z,72.70
2023-03-28T06:45:43.837Z,72.84
2023-03-28T06:46:44.330Z,72.28
2023-03-28T06:47:43.898Z,72.63
2023-03-28T06:48:43.848Z,72.32
2023-03-28T06:49:43.876Z,72.53
2023-03-28T06:50:44.645Z,72.74
2023-03-28T06:51:43.802Z,73.05
2023-03-28T06:52:43.812Z,72.94
2023-03-28T06:53:44.296Z,72.84
2023-03-28T06:54:46.015Z,72.74
2023-03-28T06:55:43.762Z,72.74
2023-03-28T06:56:43.784Z,72.60
2023-03-28T06:57:43.750Z,72.18
2023-03-28T06:58:43.737Z,71.73
2023-03-28T06:59:43.744Z,71.97
2023-03-28T07:01:50.891Z,69.95
2023-03-28T07:02:51.026Z,68.57
2023-03-28T07:03:52.441Z,66.99
2023-03-28T07:04:52.371Z,66.96
2023-03-28T07:05:50.853Z,67.06
2023-03-28T07:06:50.833Z,66.44
2023-03-28T07:07:50.847Z,66.30
2023-03-28T07:08:50.852Z,64.90
2023-03-28T07:09:50.813Z,63.90
2023-03-28T07:10:50.810Z,64.00
2023-03-28T07:11:50.797Z,64.68
2023-03-28T07:12:50.796Z,64.27
2023-03-28T07:13:51.422Z,64.27
2023-03-28T07:14:50.801Z,65.72
2023-03-28T07:15:50.780Z,65.92
2023-03-28T07:16:50.776Z,66.26
2023-03-28T07:17:50.780Z,66.88
2023-03-28T07:18:50.756Z,66.78
2023-03-28T07:19:50.750Z,66.96
2023-03-28T07:21:01.514Z,65.83
2023-03-28T07:21:51.759Z,64.43
2023-03-28T07:22:50.741Z,63.27
2023-03-28T07:23:50.757Z,62.75
2023-03-28T07:24:50.712Z,61.77
2023-03-28T07:25:50.685Z,60.03
2023-03-28T07:26:52.075Z,58.95
2023-03-28T07:27:51.685Z,58.41
2023-03-28T07:28:50.679Z,57.13
2023-03-28T07:29:50.672Z,57.03
2023-03-28T07:30:50.671Z,56.00
2023-03-28T07:31:50.658Z,57.00
2023-03-28T07:32:59.793Z,56.71
2023-03-28T07:33:51.659Z,56.46
2023-03-28T07:34:51.426Z,57.95
2023-03-28T07:35:50.681Z,58.26
2023-03-28T07:36:50.619Z,58.47
2023-03-28T07:37:50.618Z,58.23
2023-03-28T07:38:50.588Z,57.39
2023-03-28T07:39:50.578Z,56.30
2023-03-28T07:40:50.595Z,54.41
2023-03-28T07:41:50.966Z,54.02
2023-03-28T07:42:50.592Z,54.25
2023-03-28T07:43:50.578Z,54.38
2023-03-28T07:44:50.568Z,54.57
2023-03-28T07:45:50.537Z,54.90
2023-03-28T07:46:50.518Z,55.13
2023-03-28T07:47:50.554Z,54.85
2023-03-28T07:48:51.597Z,55.98
2023-03-28T07:49:52.635Z,56.00
2023-03-28T07:50:51.585Z,56.08
2023-03-28T07:51:51.686Z,55.87
2023-03-28T07:52:51.588Z,55.87
2023-03-28T07:53:51.569Z,56.23
2023-03-28T07:54:51.579Z,57.29
2023-03-28T07:55:54.955Z,57.42
2023-03-28T07:56:52.659Z,58.03
2023-03-28T07:57:51.598Z,59.06
2023-03-28T07:58:51.529Z,58.98
2023-03-28T07:59:51.537Z,58.98
2023-03-28T08:00:52.564Z,59.27
2023-03-28T08:01:51.513Z,57.21
2023-03-28T08:02:51.551Z,58.98
2023-03-28T08:03:51.635Z,59.12
2023-03-28T08:04:51.504Z,59.50
2023-03-28T08:05:51.706Z,58.96
2023-03-28T08:06:51.464Z,59.17
2023-03-28T08:07:51.456Z,58.45
2023-03-28T08:08:51.466Z,58.31
2023-03-28T08:09:51.443Z,57.36
2023-03-28T08:10:51.697Z,57.73
2023-03-28T08:11:52.060Z,57.44
2023-03-28T08:12:51.437Z,58.60
2023-03-28T08:13:51.445Z,57.21
2023-03-28T08:14:51.427Z,57.59
2023-03-28T08:15:53.003Z,56.93
2023-03-28T08:16:51.405Z,56.67
2023-03-28T08:17:51.454Z,55.38
2023-03-28T08:19:03.545Z,54.21
2023-03-28T08:19:53.385Z,52.87
2023-03-28T08:20:51.363Z,52.64
2023-03-28T08:21:51.341Z,53.59
2023-03-28T08:22:51.958Z,52.67
2023-03-28T08:23:51.373Z,52.67
2023-03-28T08:24:51.328Z,52.77
2023-03-28T08:25:51.332Z,52.75
2023-03-28T08:26:51.293Z,52.18
2023-03-28T08:27:51.324Z,53.92
2023-03-28T08:28:51.288Z,53.41
2023-03-28T08:29:51.290Z,52.77
2023-03-28T08:30:51.324Z,52.97
2023-03-28T08:31:51.628Z,51.82
2023-03-28T08:32:51.346Z,51.34
2023-03-28T08:33:51.272Z,52.31
2023-03-28T08:34:51.279Z,52.02
2023-03-28T08:35:51.261Z,53.59
2023-03-28T08:36:51.224Z,51.97
2023-03-28T08:37:51.235Z,53.30
2023-03-28T08:38:51.210Z,53.45
2023-03-28T08:39:51.213Z,54.22
2023-03-28T08:40:51.234Z,54.58
2023-03-28T08:41:51.198Z,55.10
2023-03-28T08:42:51.177Z,54.46
2023-03-28T08:43:51.184Z,55.18
2023-03-28T08:44:52.081Z,55.10
2023-03-28T08:45:51.163Z,56.36
2023-03-28T08:46:51.229Z,56.26
2023-03-28T08:47:51.182Z,56.34
2023-03-28T08:48:51.125Z,57.54
2023-03-28T08:49:51.190Z,56.38
2023-03-28T08:50:51.148Z,54.90
2023-03-28T08:51:51.120Z,54.38
2023-03-28T08:52:51.152Z,55.00
2023-03-28T08:53:51.096Z,53.87
2023-03-28T08:54:52.034Z,53.74
2023-03-28T08:55:53.535Z,52.40
2023-03-28T08:56:52.118Z,53.53
2023-03-28T08:57:51.070Z,51.97
2023-03-28T08:58:51.064Z,51.48
2023-03-28T08:59:51.058Z,52.84
2023-03-28T09:00:52.576Z,53.66
2023-03-28T09:01:51.245Z,54.38
2023-03-28T09:02:52.355Z,53.53
2023-03-28T09:03:52.069Z,53.02
2023-03-28T09:04:51.013Z,54.15
2023-03-28T09:05:51.017Z,53.12
2023-03-28T09:06:50.992Z,52.92
2023-03-28T09:07:50.986Z,53.61
2023-03-28T09:08:50.999Z,52.89
2023-03-28T09:09:51.012Z,51.84
2023-03-28T09:10:50.990Z,51.53
2023-03-28T09:11:50.969Z,50.61
2023-03-28T09:12:51.458Z,50.69
2023-03-28T09:13:50.938Z,49.77
2023-03-28T09:14:52.356Z,50.51
2023-03-28T09:15:52.602Z,49.58
2023-03-28T09:16:51.185Z,49.99
2023-03-28T09:17:50.964Z,50.71
2023-03-28T09:18:50.907Z,51.33
2023-03-28T09:19:50.896Z,50.43
2023-03-28T09:20:50.884Z,51.25
2023-03-28T09:21:51.011Z,51.17
2023-03-28T09:22:50.866Z,51.81
2023-03-28T09:23:52.057Z,52.01
2023-03-28T09:24:50.858Z,52.86
2023-03-28T09:25:50.847Z,52.35
2023-03-28T09:26:50.858Z,53.09
2023-03-28T09:27:50.837Z,52.86
2023-03-28T09:28:51.215Z,53.17
2023-03-28T09:29:50.822Z,51.53
2023-03-28T09:30:50.807Z,49.78
2023-03-28T09:31:51.617Z,50.11
2023-03-28T09:32:50.808Z,50.32
2023-03-28T09:33:50.799Z,50.52
2023-03-28T09:34:50.800Z,52.09
2023-03-28T09:35:50.788Z,53.02
2023-03-28T09:36:51.823Z,53.02
2023-03-28T09:37:50.778Z,52.69
2023-03-28T09:38:50.889Z,54.13
2023-03-28T09:39:50.992Z,52.69
2023-03-28T09:40:50.819Z,52.73
2023-03-28T09:41:50.715Z,51.81
2023-03-28T09:42:50.721Z,51.71
2023-03-28T09:43:50.707Z,51.48
2023-03-28T09:44:54.596Z,50.43
2023-03-28T09:45:51.784Z,50.53
2023-03-28T09:46:50.723Z,50.94
2023-03-28T09:47:51.501Z,49.99
2023-03-28T09:48:50.901Z,49.99
2023-03-28T09:49:56.422Z,48.97
2023-03-28T09:50:53.090Z,48.35
2023-03-28T09:51:50.648Z,47.86
2023-03-28T09:52:51.429Z,47.88
2023-03-28T09:53:50.618Z,48.19
2023-03-28T09:54:50.626Z,48.21
2023-03-28T09:56:03.285Z,48.52
2023-03-28T09:56:52.645Z,48.21
2023-03-28T09:57:50.598Z,49.04
2023-03-28T09:58:51.460Z,49.35
2023-03-28T09:59:51.565Z,49.22
2023-03-28T10:00:52.519Z,47.24
2023-03-28T10:01:50.678Z,47.76
2023-03-28T10:02:50.628Z,47.24
2023-03-28T10:03:51.471Z,47.14
2023-03-28T10:04:50.581Z,45.10
2023-03-28T10:05:50.531Z,46.59
2023-03-28T10:06:50.555Z,47.11
2023-03-28T10:07:50.540Z,47.29
2023-03-28T10:08:50.531Z,47.39
2023-03-28T10:09:50.518Z,47.80
2023-03-28T10:10:52.523Z,48.42
2023-03-28T10:11:50.510Z,48.72
2023-03-28T10:12:50.494Z,50.06
2023-03-28T10:13:50.470Z,50.91
2023-03-28T10:14:50.519Z,49.24
2023-03-28T10:15:50.578Z,50.06
2023-03-28T10:16:50.448Z,50.06
2023-03-28T10:17:50.511Z,49.96
2023-03-28T10:18:50.982Z,49.32
2023-03-28T10:19:50.448Z,49.73
2023-03-28T10:20:50.410Z,49.09
2023-03-28T10:21:50.469Z,48.17
2023-03-28T10:22:50.385Z,46.62
2023-03-28T10:23:50.447Z,46.81
2023-03-28T10:24:50.379Z,47.53
2023-03-28T10:25:50.403Z,47.76
2023-03-28T10:26:50.495Z,47.74
2023-03-28T10:27:50.371Z,47.02
2023-03-28T10:28:50.405Z,45.37
2023-03-28T10:29:50.396Z,46.71
2023-03-28T10:30:50.367Z,47.00
2023-03-28T10:31:50.350Z,46.79
2023-03-28T10:32:50.338Z,46.91
2023-03-28T10:33:50.297Z,48.17
2023-03-28T10:34:50.315Z,49.84
2023-03-28T10:35:50.316Z,48.99
2023-03-28T10:36:50.338Z,48.99
2023-03-28T10:37:50.332Z,47.86
2023-03-28T10:38:50.278Z,48.68
2023-03-28T10:39:50.265Z,48.58
2023-03-28T10:40:50.279Z,48.47
2023-03-28T10:41:50.269Z,48.46
2023-03-28T10:42:50.241Z,48.66
2023-03-28T10:43:50.572Z,46.91
2023-03-28T10:44:50.253Z,47.12
2023-03-28T10:45:50.249Z,47.51
2023-03-28T10:46:51.229Z,46.87
2023-03-28T10:47:52.006Z,45.95
2023-03-28T10:48:50.192Z,45.93
2023-03-28T10:49:50.179Z,46.13
2023-03-28T10:50:50.208Z,46.13
2023-03-28T10:51:50.191Z,47.36
2023-03-28T10:52:50.355Z,47.75
2023-03-28T10:53:50.205Z,48.06
2023-03-28T10:54:50.203Z,46.52
2023-03-28T10:55:51.139Z,45.57
2023-03-28T10:56:50.218Z,45.50
2023-03-28T10:57:50.127Z,45.70
2023-03-28T10:58:50.134Z,46.85
2023-03-28T10:59:50.102Z,47.46
2023-03-28T11:00:50.093Z,47.16
2023-03-28T11:01:51.120Z,48.21
2023-03-28T11:02:50.170Z,48.21
2023-03-28T11:03:50.158Z,48.41
2023-03-28T11:04:50.602Z,48.69
2023-03-28T11:06:05.743Z,47.75
2023-03-28T11:06:52.058Z,47.03
2023-03-28T11:07:50.062Z,46.83
2023-03-28T11:08:50.057Z,46.95
2023-03-28T11:09:50.031Z,47.36
2023-03-28T11:10:50.037Z,47.38
2023-03-28T11:11:50.005Z,46.97
2023-03-28T11:12:55.076Z,48.08
2023-03-28T11:13:52.010Z,47.89
2023-03-28T11:14:50.008Z,47.00
2023-03-28T11:15:50.073Z,45.89
2023-03-28T11:16:49.994Z,45.66
2023-03-28T11:17:50.055Z,44.51
2023-03-28T11:18:49.989Z,44.71
2023-03-28T11:19:49.977Z,45.42
2023-03-28T11:20:49.946Z,45.80
2023-03-28T11:21:49.970Z,44.37
2023-03-28T11:23:02.756Z,45.09
2023-03-28T11:23:51.899Z,45.80
2023-03-28T11:24:49.931Z,44.45
2023-03-28T11:25:49.902Z,44.24
2023-03-28T11:26:49.916Z,44.96
2023-03-28T11:27:50.992Z,44.76
2023-03-28T11:28:49.923Z,46.09
2023-03-28T11:29:49.867Z,44.96
2023-03-28T11:30:49.855Z,44.55
2023-03-28T11:31:49.947Z,44.68
2023-03-28T11:32:49.908Z,45.09
2023-03-28T11:33:49.836Z,45.21
2023-03-28T11:34:49.915Z,45.62
2023-03-28T11:35:49.863Z,45.62
2023-03-28T11:36:49.904Z,45.93
2023-03-28T11:37:49.825Z,44.68
2023-03-28T11:38:50.509Z,44.57
2023-03-28T11:39:49.787Z,44.98
2023-03-28T11:40:49.793Z,44.06
2023-03-28T11:41:49.805Z,45.00
2023-03-28T11:42:49.806Z,44.51
2023-03-28T11:43:49.773Z,45.31
2023-03-28T11:44:49.752Z,44.59
2023-03-28T11:45:51.962Z,44.78
2023-03-28T11:46:50.767Z,44.47
2023-03-28T11:47:49.747Z,44.17
2023-03-28T11:48:49.738Z,44.24
2023-03-28T11:49:49.696Z,43.91
2023-03-28T11:50:49.743Z,43.08
2023-03-28T11:51:49.701Z,42.36
2023-03-28T11:52:49.691Z,42.97
2023-03-28T11:53:49.670Z,42.03
2023-03-28T11:54:49.658Z,42.16
2023-03-28T11:55:50.093Z,43.79
2023-03-28T11:56:49.748Z,43.61
2023-03-28T11:57:49.683Z,44.73
2023-03-28T11:58:49.703Z,44.55
2023-03-28T11:59:50.587Z,44.86
2023-03-28T12:00:49.778Z,44.53
2023-03-28T12:01:49.633Z,43.91
2023-03-28T12:02:49.728Z,42.40
2023-03-28T12:03:49.721Z,44.14
2023-03-28T12:04:49.594Z,44.26
2023-03-28T12:05:49.587Z,43.98
2023-03-28T12:07:01.906Z,43.67
2023-03-28T12:07:51.557Z,42.75
2023-03-28T12:08:49.642Z,43.65
2023-03-28T12:09:50.463Z,43.65
2023-03-28T12:10:49.581Z,44.68
2023-03-28T12:11:49.569Z,45.18
2023-03-28T12:12:49.531Z,46.01
2023-03-28T12:13:55.468Z,45.70
2023-03-28T12:14:51.529Z,46.01
2023-03-28T12:15:49.502Z,45.68
2023-03-28T12:16:49.503Z,46.50
2023-03-28T12:17:49.538Z,45.60
2023-03-28T12:18:49.494Z,45.72
2023-03-28T12:19:49.483Z,46.62
2023-03-28T12:20:49.465Z,46.13
2023-03-28T12:21:49.470Z,46.11
2023-03-28T12:22:49.441Z,46.21
2023-03-28T12:23:49.425Z,46.52
2023-03-28T12:24:49.428Z,45.70
2023-03-28T12:25:49.438Z,45.60
2023-03-28T12:26:50.078Z,45.80
2023-03-28T12:27:49.413Z,45.90
2023-03-28T12:28:49.397Z,46.11
2023-03-28T12:29:49.381Z,45.18
2023-03-28T12:30:49.394Z,45.80
2023-03-28T12:31:49.377Z,45.50
2023-03-28T12:32:49.420Z,44.57
2023-03-28T12:33:49.359Z,44.68
2023-03-28T12:34:49.356Z,45.09
2023-03-28T12:35:49.369Z,44.26
2023-03-28T12:36:49.349Z,44.88
2023-03-28T12:37:49.470Z,44.57
2023-03-28T12:38:49.351Z,44.39
2023-03-28T12:39:49.326Z,44.98
2023-03-28T12:40:49.319Z,45.62
2023-03-28T12:41:49.299Z,46.46
2023-03-28T12:42:49.284Z,46.64
2023-03-28T12:43:49.278Z,46.62
2023-03-28T12:44:49.277Z,45.80
2023-03-28T12:45:49.323Z,44.96
2023-03-28T12:46:49.273Z,43.32
2023-03-28T12:47:49.297Z,44.12
2023-03-28T12:48:49.244Z,43.71
2023-03-28T12:49:49.255Z,42.79
2023-03-28T12:50:49.245Z,42.67
2023-03-28T12:51:49.293Z,42.07
2023-03-28T12:52:49.219Z,43.40
2023-03-28T12:53:49.217Z,43.61
2023-03-28T12:54:49.235Z,43.61